首页
METAR-TAF:

METAR-TAF

机场 :

Hay River, 西北特區, 加拿大

纬度: 60-50N, 经度: 115-47W, 海拔: 164米

当前天气观测

该预报发布于49分钟前的23:00 UTC
风速8节,风向
温度 31°C
湿度 29%
气压 1014 hPa
能見度: 16.1公里
少量云层高于5000英尺, 积雨云.
少量云层高于6000英尺, 塔状积云.
散云层高于8900英尺
散云层高于24000英尺

METAR: CYHY 212300Z 19008KT 10SM FEW050CB FEW060TCU SCT089 SCT240 31/11 A2994 RMK CB1TCU1AC1CI1 CB NNW FU SLP143 DENSITY ALT 2500FT

时间: 17:49 (23:49 UTC)

预报

该预报发布于11分钟前的23:38 UTC
预报有效从22日的 00点(UTC)到 22日的 12点(UTC)
风速8节,风向南转西南
能見度: 10公里
散云层高于8000英尺
短暂存在
从 22日的 00点(UTC)到 22日的 12点(UTC)
能見度: 6.4公里
成为
从 22日的 03点(UTC)到 22日的 05点(UTC)
风速3节,风向多变

TAF: CYHY 212338Z 2200/2212 21008KT P6SM SCT080 TEMPO 2200/2212 4SM FU BECMG 2203/2205 VRB03KT RMK NXT FCST BY 220600Z

超过4000个机场的气象观测和天气预报(METAR&TAF报告)。

可查询的气象台以黄色和红色小点在地图上表示。

将鼠标移到小点上方,可查看气象台名称。

然后点击查看天气观测和预报。

如需切换地图:点击带黑十字的绿色按钮放大地图;点击带横线的绿色按钮缩小地图;或者点击绿色箭头查看邻近地区的地图。


METAR-TAF: